Time;durP1;ratioP1;P1;durP2;ratioP2;P2;SDS_P1;SDS_P2;PMS_P1;PMS_P2;Temp;Humidity;BMP_temperature;BMP_pressure;BME280_temperature;BME280_humidity;BME280_pressure;Samples;Min_cycle;Max_cycle;Signal;HPM_P1;HPM_P2
2022/04/17 04:02:42;;;;;;;3.60;3.30;;;6.10;97.10;;;;;;4984243;28;20479;-76
2022/04/17 04:05:09;;;;;;;4.60;3.90;;;6.10;97.20;;;;;;4985585;28;20491;-77
2022/04/17 04:07:36;;;;;;;4.60;4.13;;;6.00;97.60;;;;;;4985431;28;20455;-77
2022/04/17 04:10:04;;;;;;;4.90;4.33;;;6.00;98.10;;;;;;4985955;28;20456;-77
2022/04/17 04:12:31;;;;;;;10.40;4.73;;;6.00;98.20;;;;;;5004857;28;20478;-76
2022/04/17 04:14:58;;;;;;;4.47;3.80;;;6.00;98.50;;;;;;5005374;28;20962;-76
2022/04/17 04:17:25;;;;;;;3.90;3.60;;;6.00;98.40;;;;;;5004632;28;20956;-76
2022/04/17 04:19:53;;;;;;;8.60;4.40;;;6.00;98.40;;;;;;5004487;28;20573;-77
2022/04/17 04:22:21;;;;;;;4.60;3.57;;;5.90;98.70;;;;;;5005259;28;20482;-76
2022/04/17 04:24:48;;;;;;;4.63;3.87;;;5.90;98.80;;;;;;5005641;28;20450;-77
2022/04/17 04:29:59;;;;;;;6.87;3.43;;;6.00;99.00;;;;;;5005406;28;20811;-76
2022/04/17 04:32:25;;;;;;;4.70;3.57;;;6.00;98.90;;;;;;5005059;28;20660;-77
2022/04/17 04:34:58;;;;;;;5.60;4.00;;;6.00;99.00;;;;;;5005258;28;20450;-76
2022/04/17 04:37:25;;;;;;;5.57;3.83;;;6.00;98.90;;;;;;5004911;28;20454;-76
2022/04/17 04:39:52;;;;;;;4.57;3.70;;;6.00;98.90;;;;;;5005447;28;20470;-76
2022/04/17 04:42:19;;;;;;;4.23;3.83;;;5.90;98.60;;;;;;5005084;28;20485;-77
2022/04/17 04:44:47;;;;;;;3.90;3.50;;;5.80;98.70;;;;;;5004956;28;20462;-77
2022/04/17 04:47:13;;;;;;;4.17;3.77;;;5.70;99.50;;;;;;5005020;28;20645;-77
2022/04/17 04:49:40;;;;;;;4.97;4.10;;;5.70;99.40;;;;;;5005210;28;20462;-77
2022/04/17 04:52:08;;;;;;;4.00;3.60;;;5.70;98.90;;;;;;5006548;28;20774;-77
2022/04/17 04:54:36;;;;;;;5.13;4.30;;;5.60;99.70;;;;;;5008976;28;20489;-76
2022/04/17 04:57:03;;;;;;;4.10;3.70;;;5.60;99.90;;;;;;5008201;28;20462;-76
2022/04/17 04:59:30;;;;;;;5.60;4.60;;;5.60;99.90;;;;;;5009179;28;20454;-76
2022/04/17 05:01:57;;;;;;;7.20;4.50;;;5.60;99.70;;;;;;5008326;28;21024;-75
2022/04/17 05:04:24;;;;;;;5.20;3.80;;;5.40;99.40;;;;;;5005622;28;20486;-74
2022/04/17 05:06:51;;;;;;;6.70;3.70;;;5.30;99.90;;;;;;5008330;28;20502;-73
2022/04/17 05:09:20;;;;;;;4.20;3.80;;;5.40;99.90;;;;;;5008824;28;20467;-74
2022/04/17 05:11:47;;;;;;;4.97;4.13;;;5.30;99.90;;;;;;5008809;28;20509;-74
2022/04/17 05:14:14;;;;;;;5.20;4.33;;;5.30;99.90;;;;;;5006112;28;20448;-74
2022/04/17 05:16:42;;;;;;;5.63;4.10;;;5.30;99.90;;;;;;5005263;28;20482;-73
2022/04/17 05:19:21;;;;;;;7.90;4.33;;;5.30;99.90;;;;;;5008905;28;20481;-74
2022/04/17 05:21:48;;;;;;;4.40;4.00;;;5.30;99.90;;;;;;5008763;28;20478;-72
2022/04/17 05:24:16;;;;;;;6.20;3.93;;;5.30;99.90;;;;;;5008719;28;20537;-73
2022/04/17 05:26:45;;;;;;;4.70;3.70;;;5.30;99.90;;;;;;5007947;28;21524;-74
2022/04/17 05:29:12;;;;;;;5.03;4.00;;;5.30;99.90;;;;;;5008634;28;20450;-74
2022/04/17 05:31:38;;;;;;;4.77;3.83;;;5.40;99.90;;;;;;5008663;28;20838;-74
2022/04/17 05:34:05;;;;;;;5.00;4.07;;;5.40;99.90;;;;;;5008512;28;20461;-74
2022/04/17 05:36:32;;;;;;;7.13;4.00;;;5.40;99.90;;;;;;5007685;28;20461;-72
2022/04/17 05:38:59;;;;;;;5.70;4.70;;;5.40;99.90;;;;;;5008626;28;20456;-74
2022/04/17 05:41:27;;;;;;;5.30;4.53;;;5.50;99.90;;;;;;5008319;28;20478;-74
2022/04/17 05:43:57;;;;;;;4.60;4.10;;;5.50;99.90;;;;;;5008266;28;20464;-73
2022/04/17 05:46:25;;;;;;;3.67;3.37;;;5.60;99.90;;;;;;5007652;28;20490;-75
2022/04/17 05:48:52;;;;;;;5.50;4.00;;;5.70;99.90;;;;;;5008264;28;20455;-74
2022/04/17 05:51:19;;;;;;;4.33;3.83;;;5.80;99.90;;;;;;5007861;28;21518;-74
2022/04/17 05:53:45;;;;;;;5.63;3.83;;;5.80;99.90;;;;;;5008461;28;20466;-74
2022/04/17 05:56:12;;;;;;;6.63;4.60;;;5.90;99.90;;;;;;5007961;28;20485;-74
2022/04/17 05:58:39;;;;;;;4.77;3.87;;;5.90;99.90;;;;;;5008069;28;20446;-73
2022/04/17 06:01:07;;;;;;;4.07;3.67;;;5.90;99.90;;;;;;5008138;28;21007;-74
2022/04/17 06:03:34;;;;;;;5.40;3.50;;;6.00;99.90;;;;;;5006962;28;20842;-76
2022/04/17 06:06:01;;;;;;;5.00;3.83;;;6.10;99.90;;;;;;5007901;28;20501;-74
2022/04/17 06:08:28;;;;;;;6.00;3.90;;;6.10;99.90;;;;;;5007443;28;20455;-74
2022/04/17 06:10:55;;;;;;;5.20;3.57;;;6.20;99.90;;;;;;5007897;28;20865;-74
2022/04/17 06:13:22;;;;;;;4.00;3.60;;;6.30;99.90;;;;;;5007541;28;20454;-74
2022/04/17 06:15:48;;;;;;;3.80;3.13;;;6.30;99.50;;;;;;5007844;28;20815;-74
2022/04/17 06:18:17;;;;;;;4.30;3.43;;;6.40;99.40;;;;;;5006956;28;20541;-74
2022/04/17 06:20:43;;;;;;;4.07;3.33;;;6.40;99.50;;;;;;5007568;28;20994;-74
2022/04/17 06:23:10;;;;;;;3.70;3.30;;;6.50;99.50;;;;;;5007839;28;20486;-75
2022/04/17 06:25:37;;;;;;;4.03;3.33;;;6.50;99.40;;;;;;5007671;28;20459;-74
2022/04/17 06:28:04;;;;;;;4.70;3.07;;;6.60;99.30;;;;;;5007171;28;20635;-74
2022/04/17 06:30:31;;;;;;;3.53;3.23;;;6.60;99.10;;;;;;5007369;28;20458;-73
2022/04/17 06:32:58;;;;;;;7.43;3.03;;;6.70;99.40;;;;;;5007211;28;20455;-74
2022/04/17 06:35:26;;;;;;;4.90;3.43;;;6.80;99.40;;;;;;5007274;28;20454;-72
2022/04/17 06:37:54;;;;;;;3.93;3.53;;;6.80;99.40;;;;;;5006860;28;20454;-74
2022/04/17 06:40:22;;;;;;;4.70;3.10;;;6.90;99.30;;;;;;5006976;28;20951;-74
2022/04/17 06:42:51;;;;;;;3.23;2.90;;;6.90;99.20;;;;;;5007428;28;20951;-68
2022/04/17 06:45:19;;;;;;;3.27;2.97;;;7.00;99.20;;;;;;5006902;28;20459;-68
2022/04/17 06:47:46;;;;;;;3.40;2.73;;;7.10;99.50;;;;;;5006777;28;20490;-65
2022/04/17 06:50:14;;;;;;;3.90;2.93;;;7.10;99.20;;;;;;5007624;28;20826;-72
2022/04/17 06:52:43;;;;;;;4.10;3.07;;;7.30;99.40;;;;;;5007783;28;20556;-75
2022/04/17 06:55:11;;;;;;;3.37;3.00;;;7.40;99.30;;;;;;5007576;28;20534;-75
2022/04/17 06:57:40;;;;;;;5.70;3.37;;;7.40;99.70;;;;;;5004925;28;20784;-74
2022/04/17 07:00:09;;;;;;;3.13;2.83;;;7.50;99.40;;;;;;5006485;28;20455;-73
2022/04/17 07:02:36;;;;;;;4.40;3.20;;;7.60;99.30;;;;;;5006195;28;20517;-74
2022/04/17 07:05:03;;;;;;;7.80;2.93;;;7.80;99.30;;;;;;5006754;28;20569;-73
2022/04/17 07:07:30;;;;;;;3.27;2.90;;;7.90;99.00;;;;;;5005815;28;20491;-74
2022/04/17 07:09:58;;;;;;;5.17;2.87;;;8.00;98.70;;;;;;5006456;28;21121;-75
2022/04/17 07:12:25;;;;;;;6.97;2.47;;;8.10;98.50;;;;;;5006048;28;20850;-75
2022/04/17 07:14:52;;;;;;;3.50;2.90;;;8.20;98.10;;;;;;5006521;28;20570;-73
2022/04/17 07:17:20;;;;;;;4.30;3.30;;;8.30;98.30;;;;;;5005846;28;21029;-76
2022/04/17 07:19:47;;;;;;;3.03;2.70;;;8.40;98.30;;;;;;5006558;28;20458;-76
2022/04/17 07:22:17;;;;;;;3.97;2.60;;;8.60;98.80;;;;;;5006419;28;20479;-76
2022/04/17 07:24:51;;;;;;;5.43;2.80;;;8.60;98.20;;;;;;5006055;28;20812;-74
2022/04/17 07:27:20;;;;;;;3.33;3.00;;;8.80;98.10;;;;;;5005247;28;20493;-75
2022/04/17 07:29:47;;;;;;;2.93;2.63;;;8.90;98.40;;;;;;5006742;28;20516;-75
2022/04/17 07:32:14;;;;;;;2.60;2.33;;;9.00;97.90;;;;;;5006418;28;20470;-76
2022/04/17 07:34:40;;;;;;;2.63;2.20;;;9.20;98.00;;;;;;5005503;28;21446;-76
2022/04/17 07:37:07;;;;;;;2.57;2.37;;;9.40;97.20;;;;;;5004955;28;20457;-76
2022/04/17 07:39:34;;;;;;;4.37;2.43;;;9.50;96.90;;;;;;5006097;28;20542;-76
2022/04/17 07:42:01;;;;;;;2.93;2.43;;;9.70;95.60;;;;;;5006283;28;20565;-75
2022/04/17 07:44:32;;;;;;;2.50;2.30;;;9.80;95.70;;;;;;5006268;28;20561;-75
2022/04/17 07:46:59;;;;;;;7.87;2.33;;;10.00;95.00;;;;;;5005754;28;20498;-68
2022/04/17 07:49:26;;;;;;;3.37;2.53;;;10.30;94.10;;;;;;5006953;28;20844;-76
2022/04/17 07:51:54;;;;;;;2.20;1.77;;;10.50;93.40;;;;;;5006393;28;20482;-75
2022/04/17 07:54:21;;;;;;;3.60;2.60;;;10.70;93.10;;;;;;5005997;28;20455;-75
2022/04/17 07:56:48;;;;;;;2.60;2.37;;;11.00;93.00;;;;;;5005041;28;20446;-75
2022/04/17 07:59:15;;;;;;;3.63;2.33;;;11.20;92.60;;;;;;5006231;28;20454;-75
2022/04/17 08:01:45;;;;;;;2.20;1.93;;;11.20;92.10;;;;;;5006181;28;20490;-76
2022/04/17 08:04:12;;;;;;;3.60;2.37;;;11.30;92.70;;;;;;5006157;28;20552;-77
2022/04/17 08:06:39;;;;;;;22.67;5.10;;;11.40;92.10;;;;;;5004703;28;20494;-72
2022/04/17 08:09:06;;;;;;;3.80;2.70;;;11.40;91.70;;;;;;5005985;28;20463;-74
2022/04/17 08:11:34;;;;;;;5.17;2.47;;;11.60;91.50;;;;;;5006161;28;20489;-72
2022/04/17 08:14:01;;;;;;;2.53;1.90;;;11.70;91.10;;;;;;5006232;28;20464;-68
2022/04/17 08:16:28;;;;;;;4.03;2.57;;;11.90;91.60;;;;;;5004998;28;20446;-71
2022/04/17 08:18:56;;;;;;;3.97;2.50;;;12.00;91.50;;;;;;5005512;28;20486;-74
2022/04/17 08:21:23;;;;;;;3.10;2.40;;;12.20;90.70;;;;;;5005547;28;20558;-67
2022/04/17 08:23:50;;;;;;;2.27;2.03;;;12.30;91.10;;;;;;5009435;28;20537;-77
2022/04/17 08:26:17;;;;;;;2.37;1.80;;;12.40;90.60;;;;;;5008260;28;20490;-76
2022/04/17 08:28:43;;;;;;;3.07;2.03;;;12.50;90.40;;;;;;5013726;28;20458;-76
2022/04/17 08:31:11;;;;;;;3.90;2.17;;;12.60;89.30;;;;;;5012324;28;20558;-76
2022/04/17 08:33:38;;;;;;;3.17;2.23;;;12.60;90.30;;;;;;5018727;28;20464;-76
2022/04/17 08:36:08;;;;;;;3.30;2.30;;;12.70;90.00;;;;;;5015812;28;20456;-76
2022/04/17 08:38:38;;;;;;;2.30;2.10;;;12.80;90.40;;;;;;5012249;28;20534;-74
2022/04/17 08:41:06;;;;;;;2.67;2.30;;;13.00;88.60;;;;;;5013523;28;20478;-72
2022/04/17 08:43:33;;;;;;;1.90;1.80;;;13.10;89.20;;;;;;5012500;28;20791;-72
2022/04/17 08:46:01;;;;;;;2.67;1.90;;;13.10;89.20;;;;;;5011999;28;20465;-74
2022/04/17 08:48:28;;;;;;;3.30;2.20;;;13.20;89.10;;;;;;5010772;28;20529;-75
2022/04/17 08:50:57;;;;;;;2.37;2.17;;;13.30;86.90;;;;;;5011743;28;20524;-74
2022/04/17 08:53:27;;;;;;;3.10;2.20;;;13.40;87.80;;;;;;5011419;28;20454;-74
2022/04/17 08:55:54;;;;;;;4.57;2.40;;;13.50;87.50;;;;;;5011434;28;21036;-74
2022/04/17 08:58:22;;;;;;;3.00;2.13;;;13.50;86.70;;;;;;5011505;28;20545;-74
2022/04/17 09:00:49;;;;;;;2.60;2.17;;;13.60;86.80;;;;;;5013727;28;20517;-74
2022/04/17 09:03:16;;;;;;;3.00;2.03;;;13.70;86.90;;;;;;5013921;28;20451;-76
2022/04/17 09:05:45;;;;;;;2.20;1.73;;;13.70;86.00;;;;;;5013929;28;20482;-76
2022/04/17 09:08:14;;;;;;;1.73;1.57;;;13.80;84.70;;;;;;5013004;28;20493;-76
2022/04/17 09:10:52;;;;;;;4.23;1.90;;;13.90;84.40;;;;;;5014627;28;20990;-76
2022/04/17 09:13:27;;;;;;;2.00;1.80;;;14.00;84.20;;;;;;5013439;28;20490;-75
2022/04/17 09:15:54;;;;;;;2.40;2.20;;;14.10;82.30;;;;;;5013369;28;20465;-75
2022/04/17 09:18:22;;;;;;;2.60;2.00;;;14.10;83.10;;;;;;5012169;28;20454;-76
2022/04/17 09:20:49;;;;;;;3.20;2.00;;;14.20;82.40;;;;;;5013359;28;20479;-76
2022/04/17 09:23:32;;;;;;;2.57;2.30;;;14.20;81.70;;;;;;5013218;28;20509;-76
2022/04/17 09:26:00;;;;;;;2.23;2.03;;;14.30;84.00;;;;;;5012286;28;21050;-76
2022/04/17 09:28:33;;;;;;;2.17;1.97;;;14.30;82.90;;;;;;5012502;28;20537;-76
2022/04/17 09:31:02;;;;;;;4.40;2.67;;;14.40;83.80;;;;;;5012725;28;20506;-76
2022/04/17 09:33:37;;;;;;;2.70;2.10;;;14.40;83.90;;;;;;5012619;28;20793;-76
2022/04/17 09:36:04;;;;;;;3.00;1.90;;;14.50;82.30;;;;;;5011937;28;21035;-76
2022/04/17 09:38:34;;;;;;;2.37;1.90;;;14.50;82.70;;;;;;5012322;28;20966;-76
2022/04/17 09:41:10;;;;;;;3.40;1.90;;;14.70;80.80;;;;;;5012569;28;20557;-75
2022/04/17 09:43:37;;;;;;;3.40;2.30;;;14.70;81.20;;;;;;5012704;28;20454;-75
2022/04/17 09:46:05;;;;;;;2.40;1.70;;;14.80;82.80;;;;;;5012162;28;20501;-76
2022/04/17 09:48:34;;;;;;;2.63;2.10;;;14.90;80.50;;;;;;5011190;28;20579;-76
2022/04/17 09:51:01;;;;;;;5.10;1.90;;;15.00;79.80;;;;;;5011835;28;20490;-75
2022/04/17 09:53:33;;;;;;;1.90;1.70;;;15.10;78.70;;;;;;5011258;28;20851;-75
2022/04/17 09:56:09;;;;;;;4.60;2.17;;;15.20;77.80;;;;;;5011728;28;20490;-76
2022/04/17 09:58:44;;;;;;;2.27;1.90;;;15.20;79.60;;;;;;5010981;28;21014;-76
2022/04/17 10:01:15;;;;;;;2.73;2.00;;;15.30;80.90;;;;;;5011178;28;20573;-75
2022/04/17 10:03:43;;;;;;;2.47;1.90;;;15.30;79.80;;;;;;5012495;28;20471;-76
2022/04/17 10:06:12;;;;;;;1.67;1.47;;;15.40;79.50;;;;;;5011953;28;20443;-76
2022/04/17 10:08:42;;;;;;;3.87;1.63;;;15.50;79.70;;;;;;5011837;28;21178;-76
2022/04/17 10:11:10;;;;;;;2.70;2.20;;;15.60;75.40;;;;;;5012311;28;20537;-76
2022/04/17 10:13:38;;;;;;;2.37;2.13;;;15.60;76.50;;;;;;5011938;28;20497;-74
2022/04/17 10:16:08;;;;;;;2.00;1.80;;;15.70;76.70;;;;;;5012698;28;20490;-76
2022/04/17 10:18:40;;;;;;;2.50;1.63;;;15.80;77.60;;;;;;5011148;28;20455;-75
2022/04/17 10:21:08;;;;;;;3.87;2.27;;;15.90;77.40;;;;;;5010880;28;20558;-76
2022/04/17 10:23:42;;;;;;;1.60;1.50;;;16.00;77.20;;;;;;5011801;28;20451;-76
2022/04/17 10:26:15;;;;;;;3.70;1.93;;;16.10;76.80;;;;;;5012285;28;21072;-76
2022/04/17 10:28:46;;;;;;;2.20;1.60;;;16.20;76.50;;;;;;5012161;28;20506;-77
2022/04/17 10:31:17;;;;;;;2.03;1.83;;;16.20;76.20;;;;;;5011895;28;20502;-77
2022/04/17 10:34:15;;;;;;;2.03;1.73;;;16.10;76.60;;;;;;5012930;28;20486;-76
2022/04/17 10:36:57;;;;;;;2.87;1.90;;;16.20;76.30;;;;;;5009122;28;20473;-74
2022/04/17 10:39:30;;;;;;;4.80;2.13;;;16.20;74.10;;;;;;5013507;28;20454;-74
2022/04/17 10:41:59;;;;;;;3.43;2.20;;;16.30;77.00;;;;;;5012606;28;20502;-75
2022/04/17 10:44:32;;;;;;;2.10;1.70;;;16.40;76.80;;;;;;5010603;28;20482;-76
2022/04/17 10:47:03;;;;;;;4.90;1.90;;;16.50;75.40;;;;;;5008257;28;20538;-75
2022/04/17 10:49:30;;;;;;;4.43;2.07;;;16.60;75.10;;;;;;5006906;28;20505;-76
2022/04/17 10:51:59;;;;;;;3.83;2.23;;;16.60;73.60;;;;;;5006441;28;20586;-72
2022/04/17 10:54:46;;;;;;;6.50;2.23;;;16.70;74.40;;;;;;5006265;28;20458;-74
2022/04/17 10:57:14;;;;;;;2.83;2.20;;;16.80;73.90;;;;;;5005563;28;20464;-75
2022/04/17 10:59:45;;;;;;;1.80;1.70;;;16.90;73.90;;;;;;5006781;28;20465;-74
2022/04/17 11:02:30;;;;;;;3.23;1.77;;;17.00;73.70;;;;;;5006559;28;20617;-74
2022/04/17 11:04:56;;;;;;;2.30;1.77;;;17.10;73.80;;;;;;5006294;28;20461;-75
2022/04/17 11:07:27;;;;;;;2.80;2.00;;;17.10;74.20;;;;;;5005551;28;20504;-75
2022/04/17 11:10:32;;;;;;;3.07;2.07;;;17.20;74.20;;;;;;5007469;28;20450;-75
2022/04/17 11:13:00;;;;;;;2.40;1.90;;;17.30;72.40;;;;;;5002632;28;20474;-74
2022/04/17 11:15:32;;;;;;;3.73;2.00;;;17.40;73.10;;;;;;5007491;28;20455;-75
2022/04/17 11:18:03;;;;;;;4.30;1.70;;;17.40;70.40;;;;;;5005769;28;20546;-75
2022/04/17 11:20:31;;;;;;;4.90;2.63;;;17.50;72.70;;;;;;5005616;28;20454;-76
2022/04/17 11:22:58;;;;;;;3.47;2.13;;;17.50;74.00;;;;;;5006185;28;20463;-75
2022/04/17 11:25:28;;;;;;;3.40;1.70;;;17.50;73.80;;;;;;5006890;28;20542;-76
2022/04/17 11:27:55;;;;;;;4.73;2.33;;;17.60;72.90;;;;;;5006403;28;20489;-76
2022/04/17 11:30:52;;;;;;;2.70;1.97;;;17.70;71.10;;;;;;5006920;28;20463;-77
2022/04/17 11:33:20;;;;;;;49.03;33.67;;;17.70;71.90;;;;;;5006464;28;20545;-76
2022/04/17 11:35:47;;;;;;;6.57;5.87;;;17.70;72.80;;;;;;5006699;28;20463;-75
2022/04/17 11:38:13;;;;;;;3.50;2.23;;;17.80;71.50;;;;;;5005958;28;20454;-76
2022/04/17 11:40:41;;;;;;;14.60;10.10;;;17.90;70.70;;;;;;5006533;28;20474;-75
2022/04/17 11:43:14;;;;;;;4.57;2.47;;;17.90;71.40;;;;;;5007239;28;20980;-77
2022/04/17 11:45:44;;;;;;;8.30;5.40;;;18.00;70.90;;;;;;5009531;28;20455;-74
2022/04/17 11:48:12;;;;;;;7.43;6.27;;;18.00;71.10;;;;;;5006584;28;20502;-73
2022/04/17 11:50:40;;;;;;;2.73;2.10;;;18.10;71.60;;;;;;5007527;28;20574;-73
2022/04/17 11:53:11;;;;;;;3.10;1.67;;;18.10;70.70;;;;;;5007588;28;20545;-73
2022/04/17 11:55:40;;;;;;;3.83;2.63;;;18.10;69.50;;;;;;5007193;28;20951;-73
2022/04/17 11:58:11;;;;;;;3.03;2.37;;;18.10;70.80;;;;;;5006041;28;20494;-73
2022/04/17 12:00:39;;;;;;;13.90;8.90;;;18.20;69.00;;;;;;5007121;28;20482;-73
2022/04/17 12:03:09;;;;;;;11.20;7.70;;;18.20;70.00;;;;;;5006626;28;20541;-73
2022/04/17 12:05:37;;;;;;;347.13;228.03;;;18.30;73.30;;;;;;5007543;28;20458;-74
2022/04/17 12:08:09;;;;;;;12.00;8.40;;;18.40;73.10;;;;;;5006361;28;20582;-73
2022/04/17 12:10:38;;;;;;;43.00;33.67;;;18.50;71.10;;;;;;5008395;28;20486;-74
2022/04/17 12:13:20;;;;;;;9.20;6.60;;;18.60;71.60;;;;;;5007822;28;20458;-74
2022/04/17 12:15:58;;;;;;;631.33;526.87;;;18.70;72.90;;;;;;5005174;28;20454;-74
2022/04/17 12:18:26;;;;;;;179.93;134.33;;;18.50;72.50;;;;;;5006974;28;20461;-74
2022/04/17 12:20:58;;;;;;;11.53;8.40;;;18.50;71.60;;;;;;5009776;28;20502;-73
2022/04/17 12:23:25;;;;;;;4.27;3.40;;;18.50;68.50;;;;;;5008985;28;20518;-73
2022/04/17 12:25:53;;;;;;;27.97;21.13;;;18.50;69.90;;;;;;5009633;28;20469;-74
2022/04/17 12:28:20;;;;;;;26.10;18.20;;;18.50;70.50;;;;;;5008034;28;20499;-74
2022/04/17 12:30:47;;;;;;;12.97;8.63;;;18.60;72.00;;;;;;5008896;28;20493;-74
2022/04/17 12:33:24;;;;;;;38.20;27.80;;;18.70;70.60;;;;;;5008168;28;20913;-73
2022/04/17 12:36:09;;;;;;;5.90;3.10;;;18.80;71.80;;;;;;5006650;28;20970;-72
2022/04/17 12:38:38;;;;;;;91.90;69.30;;;18.90;70.10;;;;;;5005302;28;20446;-74
2022/04/17 12:41:18;;;;;;;15.73;10.30;;;18.90;71.30;;;;;;5008411;28;20554;-74
2022/04/17 12:43:49;;;;;;;183.43;114.60;;;19.00;70.50;;;;;;5004908;28;20545;-74
2022/04/17 12:46:25;;;;;;;64.10;48.63;;;18.90;71.10;;;;;;5005986;28;20454;-74
2022/04/17 12:49:05;;;;;;;48.43;35.30;;;19.00;71.20;;;;;;5005959;28;20977;-74
2022/04/17 12:51:34;;;;;;;61.20;46.53;;;19.10;70.10;;;;;;5006167;28;20470;-73
2022/04/17 12:54:01;;;;;;;56.00;41.20;;;19.00;70.50;;;;;;5006795;28;20454;-74
2022/04/17 12:56:28;;;;;;;127.50;88.20;;;19.00;68.70;;;;;;5005105;28;20439;-74
2022/04/17 12:58:57;;;;;;;70.17;48.90;;;19.10;69.50;;;;;;5006292;28;20876;-74
2022/04/17 13:01:25;;;;;;;21.47;10.27;;;19.10;68.60;;;;;;5007337;28;20478;-74
2022/04/17 13:03:53;;;;;;;3.30;2.30;;;19.20;69.90;;;;;;5006711;28;20465;-74
2022/04/17 13:06:22;;;;;;;5.60;3.53;;;19.30;66.50;;;;;;5005293;28;20463;-74
2022/04/17 13:09:07;;;;;;;7.17;5.43;;;19.30;68.10;;;;;;5005194;28;20509;-74
2022/04/17 13:11:35;;;;;;;12.60;8.27;;;19.40;69.70;;;;;;5006728;28;20477;-72
2022/04/17 13:14:03;;;;;;;10.33;2.23;;;19.50;69.60;;;;;;5010606;28;21016;-74
2022/04/17 13:16:31;;;;;;;17.20;9.40;;;19.60;68.70;;;;;;5010497;28;20454;-73
2022/04/17 13:18:58;;;;;;;231.37;147.27;;;19.50;65.60;;;;;;5009630;28;20458;-73
2022/04/17 13:21:25;;;;;;;294.47;206.77;;;19.40;68.30;;;;;;5010194;28;20470;-74
2022/04/17 13:23:52;;;;;;;8.83;6.73;;;19.40;69.70;;;;;;5011656;28;20467;-74
2022/04/17 13:26:21;;;;;;;12.30;9.00;;;19.50;68.40;;;;;;5010378;28;20450;-74
2022/04/17 13:28:48;;;;;;;7.13;2.80;;;19.60;67.50;;;;;;5010255;28;20576;-74
2022/04/17 13:31:19;;;;;;;1.93;1.73;;;19.70;67.30;;;;;;5009877;28;20514;-74
2022/04/17 13:33:48;;;;;;;5.03;2.00;;;19.80;65.10;;;;;;5010004;28;20446;-74
2022/04/17 13:36:15;;;;;;;3.73;2.07;;;19.90;66.10;;;;;;5010017;28;20478;-74
2022/04/17 13:38:42;;;;;;;5.10;2.00;;;19.90;64.30;;;;;;5011017;28;20516;-74
2022/04/17 13:41:09;;;;;;;8.90;4.50;;;20.00;64.20;;;;;;5010732;28;20505;-74
2022/04/17 13:43:37;;;;;;;10.23;7.30;;;20.10;64.70;;;;;;5011841;28;20559;-75
2022/04/17 13:46:04;;;;;;;4.77;3.33;;;20.10;60.50;;;;;;5011059;28;20482;-74
2022/04/17 13:48:32;;;;;;;3.40;2.67;;;20.10;62.90;;;;;;5009928;28;21566;-74
2022/04/17 13:51:05;;;;;;;3.40;2.27;;;20.00;61.70;;;;;;5011036;28;20471;-74
2022/04/17 13:53:32;;;;;;;6.70;4.80;;;19.90;62.60;;;;;;5010173;28;20473;-74
2022/04/17 13:55:59;;;;;;;2.40;2.20;;;20.00;62.90;;;;;;5011912;28;20594;-72
2022/04/17 13:58:27;;;;;;;2.90;2.60;;;20.00;62.20;;;;;;5010450;28;20465;-74
2022/04/17 14:00:56;;;;;;;2.17;1.53;;;20.10;62.20;;;;;;5010096;28;20998;-73
2022/04/17 14:03:23;;;;;;;3.20;1.83;;;20.20;61.40;;;;;;5009904;28;20909;-74
2022/04/17 14:05:52;;;;;;;6.23;1.43;;;20.30;61.90;;;;;;5010821;28;20447;-73
2022/04/17 14:08:20;;;;;;;2.43;1.57;;;20.30;60.40;;;;;;5009775;28;20525;-73
2022/04/17 14:10:47;;;;;;;1.40;1.30;;;20.40;61.40;;;;;;5010394;28;20542;-74
2022/04/17 14:13:14;;;;;;;2.20;1.30;;;20.40;61.10;;;;;;5010528;28;20463;-74
2022/04/17 14:15:41;;;;;;;1.90;1.30;;;20.40;62.60;;;;;;5009629;28;20800;-74
2022/04/17 14:18:09;;;;;;;4.20;1.87;;;20.50;61.00;;;;;;5009437;28;21001;-72
2022/04/17 14:20:38;;;;;;;1.70;1.60;;;20.50;60.30;;;;;;5009815;28;20489;-72
2022/04/17 14:23:06;;;;;;;2.00;1.50;;;20.50;60.50;;;;;;5010065;28;20505;-74
2022/04/17 14:25:33;;;;;;;5.83;1.60;;;20.60;61.30;;;;;;5009643;28;20963;-74
2022/04/17 14:28:00;;;;;;;1.60;1.30;;;20.60;63.70;;;;;;5008766;28;20827;-74
2022/04/17 14:30:27;;;;;;;3.40;1.70;;;20.70;61.30;;;;;;5009932;28;20493;-72
2022/04/17 14:32:54;;;;;;;3.60;2.33;;;20.80;61.30;;;;;;5010313;28;20939;-74
2022/04/17 14:35:22;;;;;;;2.60;1.67;;;20.80;62.50;;;;;;5009992;28;20517;-73
2022/04/17 14:37:49;;;;;;;2.70;1.53;;;21.00;62.80;;;;;;5007368;28;21025;-73
2022/04/17 14:40:15;;;;;;;2.17;1.50;;;21.10;61.00;;;;;;5006959;28;20741;-73
2022/04/17 14:42:42;;;;;;;5.10;1.50;;;21.10;61.50;;;;;;5005081;28;20458;-73
2022/04/17 14:45:15;;;;;;;3.80;2.13;;;21.10;63.30;;;;;;5006801;28;20465;-72
2022/04/17 14:47:42;;;;;;;4.80;1.60;;;21.20;64.10;;;;;;5006566;28;20568;-73
2022/04/17 14:50:09;;;;;;;2.37;1.80;;;21.30;64.10;;;;;;5006478;28;20506;-73
2022/04/17 14:52:37;;;;;;;2.33;1.70;;;21.40;63.10;;;;;;5006400;28;20475;-71
2022/04/17 14:55:05;;;;;;;2.60;1.90;;;21.50;62.40;;;;;;5006577;28;20447;-75
2022/04/17 14:57:32;;;;;;;3.07;2.60;;;21.50;60.60;;;;;;5006583;28;20465;-72
2022/04/17 14:59:59;;;;;;;5.87;3.33;;;21.50;61.40;;;;;;5007114;28;20513;-72
2022/04/17 15:02:26;;;;;;;8.23;4.47;;;21.50;62.30;;;;;;5006387;28;20568;-73
2022/04/17 15:04:52;;;;;;;6.67;2.83;;;21.40;59.90;;;;;;5006833;28;20462;-73
2022/04/17 15:07:19;;;;;;;3.27;2.40;;;21.50;61.50;;;;;;5006545;28;20550;-74
2022/04/17 15:09:48;;;;;;;14.20;12.03;;;21.50;60.30;;;;;;5006170;28;21373;-74
2022/04/17 15:12:15;;;;;;;47.63;38.97;;;21.60;61.30;;;;;;5006489;28;20522;-74
2022/04/17 15:14:41;;;;;;;13.20;9.63;;;21.60;61.20;;;;;;5006771;28;20447;-73
2022/04/17 15:17:08;;;;;;;1.97;1.70;;;21.60;59.80;;;;;;5006277;28;20457;-74
2022/04/17 15:19:35;;;;;;;38.90;26.40;;;21.70;59.70;;;;;;5006322;28;20944;-73
2022/04/17 15:22:02;;;;;;;14.93;12.30;;;21.70;61.80;;;;;;5006257;28;20478;-73
2022/04/17 15:24:29;;;;;;;29.10;22.30;;;21.80;60.50;;;;;;5006708;28;21505;-74
2022/04/17 15:26:57;;;;;;;106.93;88.47;;;21.80;62.60;;;;;;5005897;28;20538;-73
2022/04/17 15:29:24;;;;;;;9.73;8.53;;;21.90;62.00;;;;;;5006338;28;20581;-73
2022/04/17 15:31:52;;;;;;;14.30;11.90;;;22.00;62.20;;;;;;5005910;28;20466;-75
2022/04/17 15:34:19;;;;;;;4.37;2.33;;;22.20;61.90;;;;;;5006392;28;20458;-73
2022/04/17 15:36:46;;;;;;;3.30;2.70;;;22.20;60.00;;;;;;5005360;28;20463;-74
2022/04/17 15:39:13;;;;;;;4.87;3.57;;;22.40;62.00;;;;;;5006220;28;20875;-73
2022/04/17 15:41:42;;;;;;;2.03;1.70;;;22.40;59.40;;;;;;5006071;28;20482;-74
2022/04/17 15:49:40;;;;;;;4.17;3.00;;;22.60;59.20;;;;;;5005539;28;20521;-74
2022/04/17 15:52:07;;;;;;;3.37;2.27;;;22.60;57.90;;;;;;5005553;28;20537;-73
2022/04/17 15:54:34;;;;;;;2.87;1.60;;;22.60;58.60;;;;;;5005889;28;20485;-74
2022/04/17 15:57:01;;;;;;;3.13;2.80;;;22.60;57.50;;;;;;5005172;28;20950;-74
2022/04/17 15:59:29;;;;;;;3.37;1.87;;;22.70;58.80;;;;;;5005397;28;20969;-74
2022/04/17 16:01:56;;;;;;;3.40;2.03;;;22.70;57.40;;;;;;5005223;28;20491;-72
2022/04/17 16:04:24;;;;;;;2.77;1.30;;;22.70;58.00;;;;;;5003327;28;20534;-72
2022/04/17 16:06:51;;;;;;;3.33;1.33;;;22.70;57.90;;;;;;4996448;28;20470;-73
2022/04/17 16:09:18;;;;;;;3.50;1.90;;;22.70;58.20;;;;;;4993640;28;20859;-72
2022/04/17 16:11:45;;;;;;;2.33;1.53;;;22.80;57.80;;;;;;4993921;28;20472;-72
2022/04/17 16:14:12;;;;;;;1.97;1.37;;;22.70;57.80;;;;;;4998770;28;20509;-72
2022/04/17 16:16:40;;;;;;;2.10;1.57;;;22.70;57.10;;;;;;5005121;28;20542;-76
2022/04/17 16:19:13;;;;;;;2.70;1.30;;;22.60;56.70;;;;;;5005379;28;20808;-74
2022/04/17 16:21:40;;;;;;;2.30;1.90;;;22.50;57.40;;;;;;5005465;28;20479;-74
2022/04/17 16:24:07;;;;;;;3.60;1.90;;;22.50;56.40;;;;;;5004759;28;20894;-68
2022/04/17 16:26:34;;;;;;;5.53;1.57;;;22.40;65.30;;;;;;5003403;28;20824;-69
2022/04/17 16:29:01;;;;;;;2.20;1.30;;;22.30;62.00;;;;;;4999403;28;20497;-70
2022/04/17 16:31:28;;;;;;;1.73;1.43;;;22.20;58.40;;;;;;5006404;28;20482;-72
2022/04/17 16:33:56;;;;;;;2.15;1.60;;;22.10;59.10;;;;;;5004099;28;20986;-72
2022/04/17 16:36:24;;;;;;;3.13;1.60;;;22.00;58.40;;;;;;5000548;28;20204;-72
2022/04/17 16:38:51;;;;;;;1.47;1.30;;;21.90;58.90;;;;;;4991489;28;21394;-75
2022/04/17 16:41:18;;;;;;;2.33;1.53;;;21.80;57.50;;;;;;4986199;28;20475;-73
2022/04/17 16:43:45;;;;;;;1.90;1.70;;;21.60;57.00;;;;;;4988506;28;20479;-75
2022/04/17 16:46:12;;;;;;;3.07;2.77;;;21.40;56.90;;;;;;5005719;28;20470;-76
2022/04/17 16:48:40;;;;;;;5.50;3.63;;;21.20;57.90;;;;;;5007697;28;20461;-77
2022/04/17 16:51:08;;;;;;;2.53;1.80;;;21.10;58.40;;;;;;5004186;28;20474;-76
2022/04/17 16:53:36;;;;;;;2.13;1.63;;;20.80;58.50;;;;;;4998964;28;20454;-76
2022/04/17 16:56:02;;;;;;;2.00;1.53;;;20.60;58.60;;;;;;4998299;28;20466;-76
2022/04/17 17:01:28;;;;;;;3.50;1.50;;;20.30;55.90;;;;;;4929662;29;21451;-76
2022/04/17 17:03:55;;;;;;;1.90;1.50;;;20.10;56.10;;;;;;4929897;29;20454;-76
2022/04/17 17:06:24;;;;;;;4.13;2.10;;;20.00;57.00;;;;;;4955284;28;20463;-75
2022/04/17 17:08:50;;;;;;;3.27;1.80;;;19.90;55.80;;;;;;5000379;28;21028;-76